Time;durP1;ratioP1;P1;durP2;ratioP2;P2;SDS_P1;SDS_P2;PMS_P1;PMS_P2;Temp;Humidity;BMP_temperature;BMP_pressure;BME280_temperature;BME280_humidity;BME280_pressure;Samples;Min_cycle;Max_cycle;Signal;HPM_P1;HPM_P2
2023/01/11 00:00:06;;;;;;;0.20;0.20;;;12.00;61.10;;;;;;4864857;29;20057;-87
2023/01/11 00:02:33;;;;;;;0.30;0.30;;;12.10;60.30;;;;;;4867030;29;20068;-87
2023/01/11 00:04:59;;;;;;;0.35;0.35;;;12.10;60.70;;;;;;4865543;29;20025;-96
2023/01/11 00:07:25;;;;;;;0.30;0.30;;;12.20;60.30;;;;;;4849653;29;20048;-87
2023/01/11 00:09:51;;;;;;;0.38;0.38;;;12.30;60.10;;;;;;4862480;29;20045;-87
2023/01/11 00:12:16;;;;;;;0.30;0.30;;;12.50;59.70;;;;;;4880561;29;20039;-85
2023/01/11 00:14:42;;;;;;;0.30;0.30;;;12.30;59.90;;;;;;4883860;29;20060;-85
2023/01/11 00:17:08;;;;;;;0.20;0.20;;;11.90;60.40;;;;;;4882750;29;20032;-95
2023/01/11 00:19:34;;;;;;;0.38;0.38;;;11.90;60.70;;;;;;4867294;29;20040;-87
2023/01/11 00:21:59;;;;;;;0.30;0.30;;;11.90;60.30;;;;;;4867295;29;20025;-89
2023/01/11 00:24:25;;;;;;;0.30;0.30;;;12.00;60.70;;;;;;4882025;29;20033;-85
2023/01/11 00:26:51;;;;;;;0.40;0.40;;;12.20;60.10;;;;;;4866303;29;20085;-88
2023/01/11 00:29:16;;;;;;;0.30;0.30;;;12.40;59.50;;;;;;4898048;29;20425;-84
2023/01/11 00:31:42;;;;;;;0.30;0.30;;;12.20;59.30;;;;;;4884249;29;20065;-84
2023/01/11 00:34:08;;;;;;;0.30;0.30;;;11.80;59.90;;;;;;4867802;29;20116;-87
2023/01/11 00:36:33;;;;;;;0.40;0.40;;;11.50;60.70;;;;;;4869229;29;20033;-94
2023/01/11 00:39:00;;;;;;;0.25;0.25;;;11.50;62.00;;;;;;4866004;29;20025;-92
2023/01/11 00:49:43;;;;;;;0.20;0.20;;;12.10;59.70;;;;;;4885626;29;20036;-85
2023/01/11 00:52:09;;;;;;;0.30;0.30;;;11.60;60.80;;;;;;4886183;29;20437;-94
2023/01/11 00:54:39;;;;;;;0.30;0.30;;;11.70;60.70;;;;;;4885065;29;20029;-87
2023/01/11 00:57:07;;;;;;;0.20;0.20;;;11.90;60.40;;;;;;4883873;29;20029;-84
2023/01/11 00:59:34;;;;;;;0.35;0.35;;;11.80;60.00;;;;;;4883841;29;20144;-92
2023/01/11 01:02:00;;;;;;;0.40;0.40;;;11.30;61.90;;;;;;4883371;29;20029;-87
2023/01/11 01:04:26;;;;;;;0.30;0.30;;;11.40;60.90;;;;;;4868794;29;20035;-93
2023/01/11 01:06:51;;;;;;;0.20;0.20;;;11.30;61.50;;;;;;4884493;29;20385;-86
2023/01/11 01:09:17;;;;;;;0.20;0.20;;;11.60;61.00;;;;;;4882953;29;20065;-96
2023/01/11 01:11:43;;;;;;;0.30;0.30;;;11.60;62.00;;;;;;4864948;29;20052;-87
2023/01/11 01:14:28;;;;;;;0.20;0.20;;;11.70;60.10;;;;;;4864709;29;20026;-92
2023/01/11 01:17:03;;;;;;;0.20;0.20;;;11.60;60.90;;;;;;4878086;29;20037;-87
2023/01/11 01:19:30;;;;;;;0.20;0.20;;;11.60;60.90;;;;;;4884263;29;20025;-85
2023/01/11 01:21:57;;;;;;;0.20;0.20;;;11.60;61.00;;;;;;4881408;29;20025;-89
2023/01/11 01:24:23;;;;;;;0.40;0.40;;;11.70;60.30;;;;;;4884553;29;20092;-87
2023/01/11 01:26:49;;;;;;;0.30;0.30;;;11.40;60.70;;;;;;4875559;29;20478;-87
2023/01/11 01:29:15;;;;;;;0.32;0.32;;;11.20;61.60;;;;;;4866865;29;20092;-88
2023/01/11 01:31:44;;;;;;;0.20;0.20;;;11.20;61.60;;;;;;4870858;29;20047;-87
2023/01/11 01:34:11;;;;;;;0.40;0.40;;;11.20;61.50;;;;;;4865323;29;20466;-96
2023/01/11 01:36:37;;;;;;;0.25;0.25;;;11.40;61.40;;;;;;4861769;29;20027;-86
2023/01/11 01:39:04;;;;;;;0.20;0.20;;;11.40;61.00;;;;;;4866257;29;20033;-87
2023/01/11 01:41:30;;;;;;;0.20;0.20;;;11.50;60.90;;;;;;4870945;29;20039;-88
2023/01/11 01:44:00;;;;;;;0.20;0.20;;;11.60;60.50;;;;;;4878549;29;20025;-95
2023/01/11 01:46:31;;;;;;;0.30;0.30;;;11.70;60.40;;;;;;4876764;29;20029;-88
2023/01/11 01:49:08;;;;;;;0.30;0.30;;;11.80;59.70;;;;;;4847867;29;20319;-84
2023/01/11 01:51:42;;;;;;;0.30;0.30;;;11.50;60.30;;;;;;4866890;29;20116;-88
2023/01/11 01:54:18;;;;;;;0.30;0.30;;;11.60;60.90;;;;;;4848444;29;20384;-83
2023/01/11 01:56:47;;;;;;;0.20;0.20;;;11.80;59.40;;;;;;4848319;29;20090;-86
2023/01/11 01:59:16;;;;;;;0.20;0.20;;;11.60;59.50;;;;;;4881084;29;20053;-95
2023/01/11 02:01:47;;;;;;;0.30;0.30;;;11.30;60.80;;;;;;4882893;29;20764;-96
2023/01/11 02:04:20;;;;;;;0.20;0.20;;;11.20;61.50;;;;;;4867216;29;20085;-87
2023/01/11 02:06:45;;;;;;;0.40;0.40;;;11.30;60.90;;;;;;4865941;29;20029;-88
2023/01/11 02:09:22;;;;;;;0.38;0.38;;;11.40;60.50;;;;;;4866527;29;20036;-93
2023/01/11 02:11:50;;;;;;;0.30;0.30;;;11.40;60.50;;;;;;4863483;29;20041;-86
2023/01/11 02:14:18;;;;;;;0.30;0.30;;;11.40;60.50;;;;;;4872835;29;20029;-96
2023/01/11 02:16:43;;;;;;;0.20;0.20;;;11.40;60.80;;;;;;4882348;29;20037;-85
2023/01/11 02:19:19;;;;;;;0.20;0.20;;;11.40;60.60;;;;;;4877244;29;20377;-90
2023/01/11 02:22:06;;;;;;;0.38;0.38;;;11.40;60.50;;;;;;4870352;29;20390;-95
2023/01/11 02:25:06;;;;;;;0.20;0.20;;;11.20;61.50;;;;;;4869758;29;20071;-94
2023/01/11 02:28:08;;;;;;;0.30;0.30;;;11.30;61.20;;;;;;4865520;29;20033;-91
2023/01/11 02:30:57;;;;;;;0.30;0.30;;;11.30;61.30;;;;;;4867368;29;20070;-92
2023/01/11 02:33:28;;;;;;;0.25;0.25;;;11.10;61.10;;;;;;4861279;29;20033;-83
2023/01/11 02:36:18;;;;;;;0.30;0.30;;;11.10;61.00;;;;;;4861318;29;20124;-88
2023/01/11 02:39:12;;;;;;;0.30;0.30;;;10.90;62.40;;;;;;4845664;29;20041;-86
2023/01/11 02:45:03;;;;;;;0.30;0.30;;;11.10;61.80;;;;;;4842938;29;20401;-84
2023/01/11 02:47:54;;;;;;;0.30;0.30;;;11.20;61.00;;;;;;4827466;29;20033;-87
2023/01/11 02:50:38;;;;;;;0.40;0.40;;;10.60;62.50;;;;;;4844467;29;20073;-84
2023/01/11 02:53:26;;;;;;;0.30;0.30;;;10.70;62.50;;;;;;4845766;29;20037;-91
2023/01/11 02:56:00;;;;;;;0.30;0.30;;;10.90;62.60;;;;;;4845328;29;20435;-93
2023/01/11 02:58:30;;;;;;;0.40;0.40;;;11.20;61.70;;;;;;4844938;29;20071;-87
2023/01/11 03:00:57;;;;;;;0.40;0.40;;;11.40;60.80;;;;;;4844758;29;20029;-90
2023/01/11 03:03:26;;;;;;;0.30;0.30;;;11.10;61.30;;;;;;4846637;29;20029;-86
2023/01/11 03:06:06;;;;;;;0.25;0.25;;;10.80;61.50;;;;;;4846345;29;20040;-89
2023/01/11 03:08:39;;;;;;;0.40;0.40;;;10.60;62.40;;;;;;4845666;29;20042;-86
2023/01/11 03:11:09;;;;;;;0.25;0.25;;;10.90;61.60;;;;;;4849286;29;20056;-86
2023/01/11 03:14:02;;;;;;;0.20;0.20;;;10.80;61.30;;;;;;4864781;29;20028;-87
2023/01/11 03:16:50;;;;;;;0.30;0.30;;;11.10;61.10;;;;;;4865225;29;20037;-87
2023/01/11 03:19:40;;;;;;;0.30;0.30;;;10.90;61.60;;;;;;4865949;29;20021;-84
2023/01/11 03:22:19;;;;;;;0.30;0.30;;;11.20;61.20;;;;;;4864781;29;20124;-86
2023/01/11 03:25:29;;;;;;;0.22;0.22;;;11.10;60.60;;;;;;4876467;29;20365;-82
2023/01/11 03:28:04;;;;;;;0.30;0.30;;;10.50;62.60;;;;;;4879685;29;20017;-89
2023/01/11 03:30:36;;;;;;;0.22;0.22;;;10.40;63.10;;;;;;4880044;29;20500;-86
2023/01/11 03:33:25;;;;;;;0.30;0.30;;;10.70;62.20;;;;;;4863489;29;20029;-92
2023/01/11 03:36:07;;;;;;;0.30;0.30;;;10.60;61.70;;;;;;4845973;29;20026;-94
2023/01/11 03:38:44;;;;;;;0.20;0.20;;;10.50;62.20;;;;;;4846204;29;20033;-93
2023/01/11 03:41:17;;;;;;;0.30;0.30;;;10.70;61.90;;;;;;4860920;29;20029;-87
2023/01/11 03:43:45;;;;;;;0.30;0.30;;;11.00;61.20;;;;;;4845273;29;20034;-90
2023/01/11 03:46:37;;;;;;;0.40;0.40;;;11.30;60.40;;;;;;4875910;29;20021;-88
2023/01/11 03:49:35;;;;;;;0.30;0.30;;;11.50;60.10;;;;;;4879837;29;20389;-86
2023/01/11 03:52:04;;;;;;;0.40;0.40;;;11.40;60.20;;;;;;4845669;29;20489;-88
2023/01/11 03:54:32;;;;;;;0.30;0.30;;;11.30;59.80;;;;;;4845689;29;20026;-90
2023/01/11 03:57:07;;;;;;;0.30;0.30;;;11.30;60.50;;;;;;4879722;29;20033;-91
2023/01/11 03:59:33;;;;;;;0.20;0.20;;;11.70;59.60;;;;;;4863517;29;20059;-90
2023/01/11 04:01:59;;;;;;;0.30;0.30;;;11.90;59.00;;;;;;4889419;29;20025;-86
2023/01/11 04:04:26;;;;;;;0.30;0.30;;;12.10;58.50;;;;;;4880039;29;20029;-88
2023/01/11 04:06:51;;;;;;;0.30;0.30;;;12.10;58.60;;;;;;4878545;29;20021;-89
2023/01/11 04:09:17;;;;;;;0.30;0.30;;;12.10;58.50;;;;;;4879328;29;20044;-86
2023/01/11 04:11:43;;;;;;;0.20;0.20;;;12.10;58.30;;;;;;4873537;29;20048;-95
2023/01/11 04:14:09;;;;;;;0.30;0.30;;;12.00;58.80;;;;;;4864089;29;20029;-87
2023/01/11 04:16:35;;;;;;;0.20;0.20;;;11.90;58.50;;;;;;4864602;29;20036;-84
2023/01/11 04:19:01;;;;;;;0.32;0.32;;;11.80;58.40;;;;;;4879087;29;20021;-86
2023/01/11 04:21:28;;;;;;;0.25;0.25;;;11.40;59.40;;;;;;4878310;29;20025;-88
2023/01/11 04:23:54;;;;;;;0.30;0.30;;;11.50;59.70;;;;;;4879722;29;20132;-93
2023/01/11 04:26:19;;;;;;;0.28;0.28;;;11.50;59.20;;;;;;4879546;29;20544;-85
2023/01/11 04:28:45;;;;;;;0.28;0.28;;;11.50;59.30;;;;;;4890488;29;20042;-88
2023/01/11 04:31:14;;;;;;;0.20;0.20;;;11.50;59.40;;;;;;4878730;29;20033;-89
2023/01/11 04:33:40;;;;;;;0.20;0.20;;;11.30;59.90;;;;;;4868983;29;20581;-96
2023/01/11 04:36:07;;;;;;;0.30;0.30;;;11.30;59.80;;;;;;4863941;29;20033;-90
2023/01/11 04:38:33;;;;;;;0.22;0.22;;;11.30;60.00;;;;;;4869972;29;20034;-90
2023/01/11 04:43:43;;;;;;;0.20;0.20;;;11.30;59.80;;;;;;4870173;29;20036;-89
2023/01/11 04:46:09;;;;;;;0.30;0.30;;;11.60;59.20;;;;;;4879059;29;20033;-93
2023/01/11 04:48:38;;;;;;;0.20;0.20;;;11.70;58.50;;;;;;4878997;29;20037;-88
2023/01/11 04:51:07;;;;;;;0.30;0.30;;;11.50;59.10;;;;;;4867284;29;20560;-86
2023/01/11 04:53:34;;;;;;;0.32;0.32;;;11.70;58.60;;;;;;4862463;29;20116;-89
2023/01/11 04:56:04;;;;;;;0.38;0.38;;;11.80;58.50;;;;;;4880781;29;20033;-81
2023/01/11 04:58:30;;;;;;;0.30;0.30;;;11.90;58.10;;;;;;4882486;29;20049;-86
2023/01/11 05:00:56;;;;;;;0.30;0.30;;;11.80;58.30;;;;;;4880744;29;20536;-88
2023/01/11 05:03:22;;;;;;;0.38;0.38;;;11.40;59.20;;;;;;4883028;29;20025;-86
2023/01/11 05:05:56;;;;;;;0.30;0.30;;;11.40;59.00;;;;;;4871935;29;20028;-93
2023/01/11 05:08:22;;;;;;;0.30;0.30;;;11.50;59.10;;;;;;4867913;29;20109;-88
2023/01/11 05:10:56;;;;;;;0.30;0.30;;;11.50;58.90;;;;;;4890097;29;20060;-87
2023/01/11 05:13:40;;;;;;;0.32;0.32;;;11.40;59.20;;;;;;4884963;29;20025;-83
2023/01/11 05:16:14;;;;;;;0.25;0.25;;;11.20;59.60;;;;;;4879687;29;20056;-84
2023/01/11 05:18:41;;;;;;;0.22;0.22;;;11.20;59.70;;;;;;4883450;29;20413;-85
2023/01/11 05:21:08;;;;;;;0.30;0.30;;;11.20;59.60;;;;;;4868032;29;20132;-93
2023/01/11 05:23:35;;;;;;;0.30;0.30;;;11.00;60.10;;;;;;4883385;29;20124;-86
2023/01/11 05:26:03;;;;;;;0.30;0.30;;;11.20;60.00;;;;;;4882517;29;20404;-86
2023/01/11 05:28:29;;;;;;;0.40;0.40;;;11.20;59.30;;;;;;4882194;29;20033;-95
2023/01/11 05:30:54;;;;;;;0.40;0.40;;;11.20;59.60;;;;;;4881365;29;20401;-87
2023/01/11 05:33:20;;;;;;;0.30;0.30;;;11.40;59.20;;;;;;4876117;29;20030;-87
2023/01/11 05:35:46;;;;;;;0.40;0.40;;;11.40;58.90;;;;;;4862996;29;20034;-85
2023/01/11 05:38:12;;;;;;;0.30;0.30;;;11.70;58.30;;;;;;4881355;29;20033;-85
2023/01/11 05:40:37;;;;;;;0.30;0.30;;;11.70;58.70;;;;;;4881873;29;20029;-86
2023/01/11 05:43:05;;;;;;;0.20;0.20;;;11.70;58.40;;;;;;4888280;29;20077;-87
2023/01/11 05:45:34;;;;;;;0.35;0.35;;;11.60;58.80;;;;;;4881491;29;20033;-84
2023/01/11 05:48:00;;;;;;;0.27;0.27;;;11.60;58.60;;;;;;4883991;29;20053;-94
2023/01/11 05:50:26;;;;;;;0.30;0.30;;;11.70;58.40;;;;;;4881803;29;20473;-85
2023/01/11 05:52:52;;;;;;;0.22;0.22;;;11.80;58.30;;;;;;4863887;29;20044;-93
2023/01/11 05:55:18;;;;;;;0.40;0.40;;;11.80;58.40;;;;;;4871647;29;20025;-83
2023/01/11 05:57:44;;;;;;;0.32;0.32;;;11.90;57.90;;;;;;4865642;29;20037;-86
2023/01/11 06:00:11;;;;;;;0.30;0.30;;;12.00;58.00;;;;;;4880793;29;20052;-91
2023/01/11 06:02:36;;;;;;;0.30;0.30;;;12.00;57.70;;;;;;4865682;29;20097;-86
2023/01/11 06:21:34;;;;;;;0.30;0.30;;;11.50;58.30;;;;;;4994004;23;20452;-84
2023/01/11 06:24:00;;;;;;;0.40;0.40;;;11.40;58.30;;;;;;4876871;29;20553;-90
2023/01/11 06:26:25;;;;;;;0.40;0.40;;;11.30;59.10;;;;;;4883943;29;20032;-86
2023/01/11 06:28:51;;;;;;;0.20;0.20;;;11.10;59.30;;;;;;4883657;29;20559;-86
2023/01/11 06:31:17;;;;;;;0.32;0.32;;;10.80;60.20;;;;;;4883195;29;20040;-95
2023/01/11 06:33:42;;;;;;;0.30;0.30;;;11.10;60.20;;;;;;4883350;29;20024;-85
2023/01/11 06:36:10;;;;;;;0.32;0.32;;;11.40;58.90;;;;;;4883611;29;20472;-93
2023/01/11 06:38:36;;;;;;;0.30;0.30;;;10.90;59.80;;;;;;4915762;29;20028;-90
2023/01/11 06:41:04;;;;;;;0.30;0.30;;;10.50;61.70;;;;;;4883339;29;20120;-93
2023/01/11 06:43:31;;;;;;;0.20;0.20;;;10.60;61.40;;;;;;4883377;29;20036;-88
2023/01/11 06:45:57;;;;;;;0.20;0.20;;;10.90;60.40;;;;;;4883343;29;20055;-88
2023/01/11 06:48:26;;;;;;;0.20;0.20;;;11.30;59.50;;;;;;4883022;29;20017;-87
2023/01/11 06:50:54;;;;;;;0.30;0.30;;;11.30;59.60;;;;;;4882545;29;20035;-89
2023/01/11 06:53:20;;;;;;;0.30;0.30;;;11.20;59.10;;;;;;4882159;29;20059;-88
2023/01/11 06:55:51;;;;;;;0.28;0.28;;;11.10;59.40;;;;;;4883551;29;20037;-93
2023/01/11 06:58:16;;;;;;;0.32;0.32;;;11.20;59.60;;;;;;4883101;29;20032;-92
2023/01/11 07:00:42;;;;;;;0.30;0.30;;;11.20;59.80;;;;;;4865005;29;20469;-90
2023/01/11 07:03:11;;;;;;;0.30;0.30;;;11.40;59.40;;;;;;4864656;29;20110;-89
2023/01/11 07:05:37;;;;;;;0.30;0.30;;;11.20;59.30;;;;;;4883265;29;20047;-95
2023/01/11 07:08:03;;;;;;;0.38;0.38;;;11.10;60.20;;;;;;4900188;29;20036;-92
2023/01/11 07:10:29;;;;;;;0.25;0.25;;;11.20;59.70;;;;;;4882806;29;20024;-94
2023/01/11 07:12:55;;;;;;;0.30;0.30;;;11.30;59.40;;;;;;4882743;29;20033;-91
2023/01/11 07:15:21;;;;;;;0.30;0.30;;;11.30;59.70;;;;;;4883100;29;20036;-95
2023/01/11 07:17:52;;;;;;;0.30;0.30;;;11.50;59.60;;;;;;4882877;29;20032;-93
2023/01/11 07:20:17;;;;;;;0.40;0.40;;;11.70;58.90;;;;;;4882728;29;20056;-92
2023/01/11 07:22:43;;;;;;;0.22;0.22;;;11.80;58.70;;;;;;4892012;29;20063;-91
2023/01/11 07:25:09;;;;;;;0.30;0.30;;;11.60;58.50;;;;;;4898030;29;20033;-91
2023/01/11 07:27:34;;;;;;;0.40;0.40;;;11.30;59.70;;;;;;4898118;29;20127;-89
2023/01/11 07:30:00;;;;;;;0.28;0.28;;;11.30;59.60;;;;;;4897961;29;20389;-90
2023/01/11 07:32:26;;;;;;;0.20;0.20;;;11.20;60.30;;;;;;4891165;29;20032;-89
2023/01/11 07:34:53;;;;;;;0.20;0.20;;;11.20;60.20;;;;;;4882533;29;20036;-90
2023/01/11 07:37:19;;;;;;;0.30;0.30;;;11.30;60.00;;;;;;4882425;29;20076;-90
2023/01/11 07:39:45;;;;;;;0.28;0.28;;;11.40;60.00;;;;;;4887458;29;20028;-89
2023/01/11 07:44:56;;;;;;;0.30;0.30;;;11.40;59.40;;;;;;4880598;29;20539;-90
2023/01/11 07:47:21;;;;;;;0.30;0.30;;;11.00;60.60;;;;;;4885877;29;20029;-91
2023/01/11 07:49:47;;;;;;;0.40;0.40;;;11.00;60.70;;;;;;4897769;29;20025;-91
2023/01/11 07:52:13;;;;;;;0.38;0.38;;;11.30;60.50;;;;;;4898002;29;20544;-92
2023/01/11 07:54:39;;;;;;;0.25;0.25;;;11.00;60.10;;;;;;4882252;29;20028;-90
2023/01/11 07:57:05;;;;;;;0.45;0.28;;;11.10;60.60;;;;;;4882460;29;20494;-88
2023/01/11 07:59:30;;;;;;;0.32;0.32;;;11.50;60.40;;;;;;4882004;29;20032;-88
2023/01/11 08:01:56;;;;;;;0.30;0.30;;;11.70;59.50;;;;;;4890894;29;20447;-87
2023/01/11 08:04:22;;;;;;;0.40;0.40;;;11.90;59.10;;;;;;4882724;29;20021;-87
2023/01/11 08:06:48;;;;;;;0.30;0.30;;;12.10;58.80;;;;;;4882215;29;20036;-90
2023/01/11 08:09:13;;;;;;;0.32;0.32;;;12.20;58.50;;;;;;4882276;29;20068;-93
2023/01/11 08:14:38;;;;;;;0.20;0.20;;;12.00;59.00;;;;;;4898019;29;20031;-90
2023/01/11 08:17:05;;;;;;;0.40;0.40;;;12.10;58.70;;;;;;4888863;29;20048;-91
2023/01/11 08:19:30;;;;;;;0.30;0.30;;;12.10;59.30;;;;;;4881858;29;20025;-87
2023/01/11 08:21:56;;;;;;;0.22;0.22;;;12.30;58.30;;;;;;4882155;29;20083;-90
2023/01/11 08:24:22;;;;;;;0.40;0.40;;;12.40;58.00;;;;;;4880999;29;20029;-90
2023/01/11 08:26:47;;;;;;;0.38;0.38;;;12.50;58.00;;;;;;4881912;29;20021;-89
2023/01/11 08:29:13;;;;;;;0.20;0.20;;;12.60;58.10;;;;;;4877867;29;20032;-90
2023/01/11 08:31:39;;;;;;;0.22;0.22;;;12.60;57.80;;;;;;4865810;29;20037;-87
2023/01/11 08:34:05;;;;;;;0.20;0.20;;;12.70;57.70;;;;;;4873415;29;20043;-88
2023/01/11 08:36:31;;;;;;;0.30;0.30;;;12.70;57.80;;;;;;4886058;29;20384;-89
2023/01/11 08:38:57;;;;;;;0.20;0.20;;;12.60;58.20;;;;;;4885007;29;20033;-91
2023/01/11 08:41:24;;;;;;;0.30;0.30;;;12.60;58.20;;;;;;4874477;29;20463;-92
2023/01/11 08:43:50;;;;;;;0.20;0.20;;;12.50;58.10;;;;;;4885440;29;20088;-88
2023/01/11 08:46:17;;;;;;;0.20;0.20;;;12.40;58.60;;;;;;4885292;29;20037;-83
2023/01/11 08:48:43;;;;;;;0.30;0.30;;;12.60;58.00;;;;;;4885306;29;20051;-89
2023/01/11 08:51:09;;;;;;;0.30;0.30;;;12.70;58.40;;;;;;4886234;29;20032;-88
2023/01/11 08:53:35;;;;;;;0.20;0.20;;;13.10;57.20;;;;;;4885232;29;20100;-85
2023/01/11 08:56:01;;;;;;;0.30;0.30;;;14.00;56.90;;;;;;4885228;29;20037;-92
2023/01/11 08:58:27;;;;;;;0.30;0.30;;;15.70;54.00;;;;;;4889225;29;20032;-92
2023/01/11 09:00:55;;;;;;;0.30;0.30;;;17.40;50.70;;;;;;4885088;29;20076;-91
2023/01/11 09:03:21;;;;;;;0.30;0.30;;;18.70;49.10;;;;;;4885008;29;20035;-88
2023/01/11 09:05:47;;;;;;;0.40;0.40;;;20.00;47.40;;;;;;4884982;29;20025;-90
2023/01/11 09:08:13;;;;;;;0.28;0.28;;;21.10;46.00;;;;;;4884972;29;20028;-86
2023/01/11 09:10:38;;;;;;;0.40;0.40;;;21.90;45.00;;;;;;4885117;29;20123;-85
2023/01/11 09:13:04;;;;;;;0.47;0.47;;;22.30;44.30;;;;;;4885021;29;20029;-87
2023/01/11 09:15:30;;;;;;;0.30;0.30;;;22.60;44.60;;;;;;4884810;29;20496;-86
2023/01/11 09:17:55;;;;;;;0.30;0.30;;;23.40;43.80;;;;;;4884975;29;20025;-87
2023/01/11 09:20:22;;;;;;;0.30;0.30;;;24.30;42.80;;;;;;4880932;29;20048;-89
2023/01/11 09:22:50;;;;;;;0.50;0.50;;;24.90;42.20;;;;;;4877184;29;20444;-86
2023/01/11 09:25:16;;;;;;;0.40;0.40;;;25.50;41.70;;;;;;4866292;29;20116;-86
2023/01/11 09:27:43;;;;;;;0.50;0.50;;;26.00;41.10;;;;;;4873697;29;20136;-87
2023/01/11 09:30:10;;;;;;;0.43;0.43;;;25.80;40.60;;;;;;4884233;29;20092;-85
2023/01/11 09:32:36;;;;;;;0.50;0.50;;;25.70;41.10;;;;;;4884186;29;20040;-85
2023/01/11 09:35:05;;;;;;;0.40;0.40;;;25.70;40.70;;;;;;4884474;29;20024;-88
2023/01/11 09:37:31;;;;;;;0.38;0.38;;;25.60;41.10;;;;;;4882244;29;20028;-87
2023/01/11 09:39:58;;;;;;;0.30;0.30;;;25.90;41.00;;;;;;4898441;29;20032;-87
2023/01/11 09:42:38;;;;;;;0.40;0.40;;;25.60;40.90;;;;;;4899682;29;20063;-86
2023/01/11 09:45:19;;;;;;;0.40;0.40;;;25.10;40.70;;;;;;4884791;29;20027;-88
2023/01/11 09:48:03;;;;;;;0.40;0.40;;;24.10;41.50;;;;;;4884471;29;20452;-86
2023/01/11 09:50:38;;;;;;;0.43;0.43;;;23.60;42.00;;;;;;4884332;29;20777;-87
2023/01/11 09:53:08;;;;;;;0.30;0.30;;;23.70;42.60;;;;;;4884060;29;20029;-85
2023/01/11 09:55:45;;;;;;;0.50;0.50;;;24.30;41.80;;;;;;4884034;29;20039;-86
2023/01/11 09:58:28;;;;;;;0.50;0.50;;;24.90;41.90;;;;;;4883856;29;20032;-85
2023/01/11 10:01:09;;;;;;;0.40;0.40;;;24.30;41.80;;;;;;4884122;29;20025;-87
2023/01/11 10:03:53;;;;;;;0.40;0.40;;;24.30;42.20;;;;;;4883628;29;20028;-87
2023/01/11 10:06:37;;;;;;;0.32;0.32;;;24.50;42.10;;;;;;4883852;29;20033;-86
2023/01/11 10:09:23;;;;;;;0.40;0.40;;;25.60;41.70;;;;;;4883786;29;20507;-88
2023/01/11 10:11:56;;;;;;;0.35;0.35;;;26.60;40.80;;;;;;4883689;29;20040;-85
2023/01/11 10:14:56;;;;;;;0.43;0.43;;;27.40;40.50;;;;;;4883372;29;20441;-87
2023/01/11 10:17:39;;;;;;;0.55;0.55;;;26.60;40.50;;;;;;4884694;29;20088;-86
2023/01/11 10:20:19;;;;;;;0.40;0.40;;;26.50;40.30;;;;;;4883519;29;20060;-93
2023/01/11 10:22:47;;;;;;;0.40;0.40;;;26.40;40.60;;;;;;4883922;29;20398;-94
2023/01/11 10:25:22;;;;;;;0.40;0.40;;;26.30;40.80;;;;;;4883717;29;20055;-92
2023/01/11 10:27:55;;;;;;;0.40;0.40;;;26.80;40.50;;;;;;4883672;29;20028;-92
2023/01/11 10:30:34;;;;;;;0.30;0.30;;;26.20;40.70;;;;;;4883486;29;20140;-93
2023/01/11 10:33:17;;;;;;;0.35;0.35;;;25.90;41.30;;;;;;4883578;29;20094;-93
2023/01/11 10:36:01;;;;;;;0.30;0.30;;;25.80;41.20;;;;;;4883616;29;20036;-85
2023/01/11 10:39:45;;;;;;;0.30;0.30;;;26.00;41.10;;;;;;4884528;29;20064;-83
2023/01/11 10:42:01;;;;;;;0.30;0.30;;;25.40;41.40;;;;;;4895453;29;20033;-86
2023/01/11 10:44:37;;;;;;;0.30;0.30;;;25.60;41.10;;;;;;4883628;29;20060;-83
2023/01/11 10:47:06;;;;;;;0.38;0.38;;;24.50;41.50;;;;;;4883270;29;20116;-84
2023/01/11 10:49:44;;;;;;;0.22;0.22;;;23.40;42.50;;;;;;4883240;29;20478;-85
2023/01/11 10:52:33;;;;;;;0.35;0.35;;;22.80;43.60;;;;;;4882774;29;20043;-84
2023/01/11 10:55:11;;;;;;;0.50;0.50;;;22.30;43.70;;;;;;4883084;29;20119;-85
2023/01/11 10:57:52;;;;;;;0.38;0.38;;;21.70;44.20;;;;;;4883178;29;20044;-84
2023/01/11 11:00:43;;;;;;;0.20;0.20;;;21.30;44.50;;;;;;4884427;29;20029;-85
2023/01/11 11:03:23;;;;;;;0.40;0.40;;;21.20;45.20;;;;;;4884323;29;20044;-85
2023/01/11 11:06:02;;;;;;;0.32;0.32;;;21.60;44.80;;;;;;4885861;29;20104;-85
2023/01/11 11:08:54;;;;;;;0.30;0.30;;;21.40;45.20;;;;;;4883493;29;20040;-86
2023/01/11 11:11:35;;;;;;;0.40;0.40;;;21.20;44.80;;;;;;4882963;29;20074;-85
2023/01/11 11:14:22;;;;;;;0.40;0.40;;;20.90;45.40;;;;;;4882645;29;20036;-84
2023/01/11 11:16:58;;;;;;;0.38;0.38;;;21.10;45.90;;;;;;4882692;29;20033;-85
2023/01/11 11:19:30;;;;;;;0.20;0.20;;;21.10;45.40;;;;;;4883656;29;20025;-84
2023/01/11 11:21:59;;;;;;;0.20;0.20;;;21.10;45.80;;;;;;4883010;29;20135;-84
2023/01/11 11:24:32;;;;;;;0.30;0.30;;;21.00;45.10;;;;;;4883030;29;20389;-84
2023/01/11 11:27:18;;;;;;;0.30;0.30;;;20.90;46.10;;;;;;4882875;29;20060;-85
2023/01/11 11:29:50;;;;;;;0.30;0.30;;;20.20;45.90;;;;;;4883647;29;20123;-86
2023/01/11 11:32:30;;;;;;;0.30;0.30;;;19.00;47.60;;;;;;4882891;29;20056;-86
2023/01/11 11:34:56;;;;;;;0.28;0.28;;;17.80;49.40;;;;;;4883199;29;20127;-87
2023/01/11 11:37:43;;;;;;;0.28;0.28;;;17.10;50.40;;;;;;4882422;29;20124;-85
2023/01/11 11:40:29;;;;;;;0.30;0.30;;;16.50;51.30;;;;;;4883702;29;20024;-86
2023/01/11 11:43:22;;;;;;;0.30;0.30;;;16.30;52.00;;;;;;4882881;29;20088;-86
2023/01/11 11:45:54;;;;;;;0.30;0.30;;;15.90;52.20;;;;;;4875150;29;20440;-86
2023/01/11 11:48:21;;;;;;;0.30;0.30;;;15.70;53.10;;;;;;4882406;29;20392;-86
2023/01/11 11:50:48;;;;;;;0.40;0.40;;;15.80;53.10;;;;;;4882325;29;20191;-87
2023/01/11 11:53:30;;;;;;;0.38;0.38;;;16.20;52.70;;;;;;4882162;29;20031;-86
2023/01/11 11:55:56;;;;;;;0.40;0.40;;;16.40;52.10;;;;;;4882094;29;20036;-96
2023/01/11 11:58:25;;;;;;;0.38;0.38;;;16.50;52.50;;;;;;4881884;29;20028;-87
2023/01/11 12:00:52;;;;;;;0.40;0.40;;;16.60;51.80;;;;;;4882042;29;20044;-87
2023/01/11 12:03:22;;;;;;;0.30;0.30;;;16.90;51.60;;;;;;4882037;29;20532;-87
2023/01/11 12:06:06;;;;;;;0.30;0.30;;;16.90;50.90;;;;;;4881264;29;20036;-87
2023/01/11 12:08:34;;;;;;;0.30;0.30;;;17.10;51.20;;;;;;4881927;29;20029;-85
2023/01/11 12:11:06;;;;;;;0.22;0.22;;;17.00;51.30;;;;;;4881760;29;20139;-86
2023/01/11 12:13:37;;;;;;;0.40;0.40;;;16.90;51.10;;;;;;4881555;29;20425;-86
2023/01/11 12:16:31;;;;;;;0.20;0.20;;;16.80;51.40;;;;;;4881654;29;20032;-86
2023/01/11 12:18:57;;;;;;;0.30;0.30;;;16.90;51.80;;;;;;4878781;29;20396;-85
2023/01/11 12:21:25;;;;;;;0.30;0.30;;;16.90;51.60;;;;;;4878822;29;20064;-95
2023/01/11 12:24:07;;;;;;;0.30;0.30;;;16.80;51.00;;;;;;4879474;29;20101;-94
2023/01/11 12:26:45;;;;;;;0.35;0.35;;;16.60;52.20;;;;;;4880655;29;20477;-95
2023/01/11 12:29:29;;;;;;;0.40;0.40;;;16.80;51.80;;;;;;4879654;29;20068;-91
2023/01/11 12:32:13;;;;;;;0.30;0.30;;;16.50;52.00;;;;;;4879428;29;20039;-95
2023/01/11 12:34:48;;;;;;;0.30;0.30;;;16.40;52.00;;;;;;4879840;29;20029;-92
2023/01/11 12:37:38;;;;;;;0.32;0.32;;;16.40;52.40;;;;;;4879655;29;20029;-84
2023/01/11 12:40:12;;;;;;;0.25;0.25;;;16.20;52.10;;;;;;4878421;29;20128;-85
2023/01/11 12:43:03;;;;;;;0.30;0.30;;;16.10;53.00;;;;;;4878489;29;20069;-85
2023/01/11 12:45:28;;;;;;;;;;;16.10;52.60;;;;;;4878760;29;20401;-85
2023/01/11 12:48:35;;;;;;;0.25;0.25;;;16.20;52.60;;;;;;4894036;29;19907;-85
2023/01/11 12:51:10;;;;;;;0.30;0.30;;;16.30;52.10;;;;;;4874687;29;20053;-84
2023/01/11 12:54:00;;;;;;;0.20;0.20;;;16.30;52.60;;;;;;4878207;29;20500;-85
2023/01/11 12:56:40;;;;;;;0.27;0.27;;;16.30;52.20;;;;;;4878267;29;20029;-84
2023/01/11 12:59:16;;;;;;;0.47;0.47;;;16.30;52.50;;;;;;4878199;29;20116;-86
2023/01/11 13:01:56;;;;;;;0.30;0.30;;;16.20;52.00;;;;;;4879550;29;20033;-86
2023/01/11 13:04:50;;;;;;;0.35;0.35;;;16.10;52.40;;;;;;4878317;29;20033;-86
2023/01/11 13:07:28;;;;;;;0.30;0.30;;;16.30;52.50;;;;;;4878136;29;20396;-86
2023/01/11 13:10:43;;;;;;;0.40;0.40;;;16.50;52.30;;;;;;4878234;29;20064;-85
2023/01/11 13:13:20;;;;;;;0.25;0.25;;;16.60;51.20;;;;;;4866077;29;20052;-85
2023/01/11 13:15:55;;;;;;;0.30;0.30;;;16.40;52.20;;;;;;4878023;29;20033;-86
2023/01/11 13:18:45;;;;;;;0.20;0.20;;;16.50;51.90;;;;;;4881655;29;20455;-85
2023/01/11 13:21:18;;;;;;;0.20;0.20;;;16.70;51.90;;;;;;4881463;29;20144;-84
2023/01/11 13:23:53;;;;;;;0.20;0.20;;;16.80;51.70;;;;;;4884023;29;20025;-96
2023/01/11 13:26:22;;;;;;;0.40;0.40;;;16.60;51.40;;;;;;4882212;29;20382;-91
2023/01/11 13:29:00;;;;;;;0.30;0.30;;;16.50;51.70;;;;;;4882077;29;20025;-96
2023/01/11 13:31:26;;;;;;;0.20;0.20;;;16.40;51.80;;;;;;4882377;29;20500;-94
2023/01/11 13:33:59;;;;;;;0.10;0.10;;;16.20;51.70;;;;;;4882180;29;20056;-93
2023/01/11 13:36:31;;;;;;;0.20;0.20;;;16.10;52.00;;;;;;4881837;29;20053;-86
2023/01/11 13:39:08;;;;;;;0.30;0.30;;;16.00;52.10;;;;;;4881165;29;20037;-85
2023/01/11 13:41:56;;;;;;;0.30;0.30;;;16.10;52.50;;;;;;4882890;29;20384;-86
2023/01/11 13:44:41;;;;;;;0.20;0.20;;;16.30;52.30;;;;;;4881316;29;20089;-84
2023/01/11 13:47:10;;;;;;;0.30;0.30;;;16.20;52.00;;;;;;4880854;29;20029;-86
2023/01/11 13:50:08;;;;;;;0.30;0.30;;;16.30;52.70;;;;;;4881688;29;20028;-85